createdAt,value
2023-09-11T00:01:55.271Z,82.95
2023-09-11T00:03:58.430Z,83.51
2023-09-11T00:06:05.907Z,84.35
2023-09-11T00:08:07.918Z,84.89
2023-09-11T00:10:09.958Z,83.79
2023-09-11T00:12:11.877Z,83.55
2023-09-11T00:14:13.482Z,82.67
2023-09-11T00:16:15.020Z,83.01
2023-09-11T00:18:17.040Z,84.01
2023-09-11T00:20:18.750Z,83.53
2023-09-11T00:22:20.374Z,82.85
2023-09-11T00:24:21.942Z,82.35
2023-09-11T00:26:23.557Z,82.63
2023-09-11T00:28:27.505Z,83.93
2023-09-11T00:30:29.306Z,85.07
2023-09-11T00:32:31.011Z,83.14
2023-09-11T00:34:32.662Z,82.91
2023-09-11T00:36:34.873Z,82.90
2023-09-11T00:38:36.479Z,83.12
2023-09-11T00:40:38.123Z,83.03
2023-09-11T00:42:39.828Z,83.45
2023-09-11T00:44:41.640Z,83.36
2023-09-11T00:46:43.473Z,83.75
2023-09-11T00:48:45.336Z,84.77
2023-09-11T00:50:47.926Z,85.10
2023-09-11T00:52:50.025Z,84.95
2023-09-11T00:54:53.404Z,84.11
2023-09-11T00:56:55.288Z,85.00
2023-09-11T00:58:57.369Z,84.01
2023-09-11T01:00:59.754Z,84.34
2023-09-11T01:03:01.367Z,85.05
2023-09-11T01:05:08.171Z,84.14
2023-09-11T01:07:10.304Z,84.56
2023-09-11T01:09:11.892Z,84.52
2023-09-11T01:11:13.538Z,84.54
2023-09-11T01:13:15.188Z,84.37
2023-09-11T01:15:17.685Z,84.53
2023-09-11T01:17:31.669Z,83.63
2023-09-11T01:19:52.133Z,84.18
2023-09-11T01:22:00.783Z,85.47
2023-09-11T01:24:23.946Z,85.31
2023-09-11T01:27:04.374Z,85.71
2023-09-11T01:29:28.044Z,85.19
2023-09-11T01:31:33.283Z,85.40
2023-09-11T01:33:35.377Z,85.37
2023-09-11T01:35:37.061Z,85.06
2023-09-11T01:37:38.763Z,84.98
2023-09-11T01:39:40.378Z,84.75
2023-09-11T01:41:45.719Z,85.83
2023-09-11T01:43:49.611Z,86.24
2023-09-11T01:45:51.238Z,85.81
2023-09-11T01:47:54.652Z,85.71
2023-09-11T01:49:58.387Z,86.13
2023-09-11T01:52:02.082Z,85.99
2023-09-11T01:54:05.011Z,86.16
2023-09-11T01:56:07.325Z,86.47
2023-09-11T01:58:08.919Z,86.92
2023-09-11T02:00:12.736Z,85.87
2023-09-11T02:02:15.464Z,85.94
2023-09-11T02:04:17.313Z,86.22
2023-09-11T02:06:19.100Z,86.48
2023-09-11T02:08:20.732Z,86.45
2023-09-11T02:10:22.751Z,85.66
2023-09-11T02:12:24.311Z,86.15
2023-09-11T02:14:25.998Z,85.92
2023-09-11T02:16:27.908Z,86.16
2023-09-11T02:18:29.639Z,86.09
2023-09-11T02:20:31.327Z,87.32
2023-09-11T02:22:32.923Z,87.22
2023-09-11T02:24:34.891Z,87.97
2023-09-11T02:26:36.793Z,88.34
2023-09-11T02:28:39.430Z,87.29
2023-09-11T02:30:41.152Z,86.43
2023-09-11T02:32:42.742Z,86.85
2023-09-11T02:34:44.505Z,86.81
2023-09-11T02:36:46.758Z,87.07
2023-09-11T02:38:48.444Z,86.70
2023-09-11T02:41:02.979Z,86.99
2023-09-11T02:43:10.312Z,86.23
2023-09-11T02:45:12.072Z,86.95
2023-09-11T02:47:13.643Z,87.27
2023-09-11T02:49:15.296Z,86.51
2023-09-11T02:51:18.414Z,85.65
2023-09-11T02:53:21.135Z,86.42
2023-09-11T02:55:23.169Z,85.55
2023-09-11T02:57:24.802Z,86.36
2023-09-11T02:59:26.493Z,87.28
2023-09-11T03:01:28.806Z,86.63
2023-09-11T03:03:30.882Z,87.35
2023-09-11T03:05:33.461Z,87.18
2023-09-11T03:07:35.466Z,87.28
2023-09-11T03:09:37.052Z,88.09
2023-09-11T03:11:38.684Z,85.96
2023-09-11T03:13:40.513Z,85.71
2023-09-11T03:15:46.746Z,86.09
2023-09-11T03:17:50.645Z,86.88
2023-09-11T03:19:52.646Z,86.65
2023-09-11T03:21:56.887Z,86.65
2023-09-11T03:23:58.697Z,87.87
2023-09-11T03:26:00.767Z,86.30
2023-09-11T03:28:02.926Z,86.35
2023-09-11T03:30:05.564Z,85.66
2023-09-11T03:32:07.889Z,86.55
2023-09-11T03:34:10.381Z,86.81
2023-09-11T03:36:18.478Z,86.75
2023-09-11T03:38:20.494Z,86.17
2023-09-11T03:40:23.896Z,86.73
2023-09-11T03:42:25.649Z,87.51
2023-09-11T03:44:28.322Z,88.04
2023-09-11T03:46:30.004Z,87.63
2023-09-11T03:48:31.763Z,87.36
2023-09-11T03:50:33.934Z,87.73
2023-09-11T03:52:35.657Z,88.69
2023-09-11T03:54:37.459Z,89.11
2023-09-11T03:56:39.336Z,88.14
2023-09-11T03:58:45.321Z,87.57
2023-09-11T04:00:48.809Z,87.74
2023-09-11T04:02:50.566Z,87.01
2023-09-11T04:04:52.798Z,87.38
2023-09-11T04:06:54.359Z,87.14
2023-09-11T04:08:56.224Z,87.17
2023-09-11T04:10:57.858Z,88.38
2023-09-11T04:12:59.957Z,87.38
2023-09-11T04:15:01.546Z,87.26
2023-09-11T04:17:03.557Z,87.48
2023-09-11T04:19:07.355Z,87.05
2023-09-11T04:21:10.973Z,87.24
2023-09-11T04:23:13.132Z,87.69
2023-09-11T04:25:14.742Z,87.65
2023-09-11T04:27:16.330Z,87.89
2023-09-11T04:29:18.532Z,87.80
2023-09-11T04:31:20.070Z,87.83
2023-09-11T04:33:22.136Z,87.68
2023-09-11T04:35:25.072Z,88.31
2023-09-11T04:37:27.745Z,87.36
2023-09-11T04:39:29.382Z,88.53
2023-09-11T04:41:31.389Z,87.93
2023-09-11T04:43:33.017Z,87.78
2023-09-11T04:45:36.203Z,87.73
2023-09-11T04:47:38.890Z,87.11
2023-09-11T04:49:40.778Z,87.58
2023-09-11T04:51:42.907Z,88.89
2023-09-11T04:53:44.522Z,89.01
2023-09-11T04:55:48.012Z,87.99
2023-09-11T04:57:51.224Z,88.01
2023-09-11T04:59:52.889Z,87.24
2023-09-11T05:01:54.543Z,87.30
2023-09-11T05:03:56.343Z,88.03
2023-09-11T05:05:58.225Z,88.09
2023-09-11T05:08:00.293Z,89.31
2023-09-11T05:10:02.775Z,90.55
2023-09-11T05:12:05.338Z,90.96
2023-09-11T05:14:07.143Z,91.89
2023-09-11T05:16:08.753Z,90.41
2023-09-11T05:18:12.250Z,89.83
2023-09-11T05:20:14.118Z,90.51
2023-09-11T05:22:15.645Z,90.89
2023-09-11T05:24:17.181Z,91.36
2023-09-11T05:26:18.705Z,90.21
2023-09-11T05:28:20.246Z,92.68
2023-09-11T05:30:22.904Z,94.00
2023-09-11T05:32:26.241Z,92.88
2023-09-11T05:34:27.866Z,91.46
2023-09-11T05:36:29.420Z,93.07
2023-09-11T05:38:30.975Z,93.69
2023-09-11T05:40:32.512Z,91.97
2023-09-11T05:42:54.039Z,92.24
2023-09-11T05:45:15.664Z,90.56
2023-09-11T05:47:39.647Z,89.82
2023-09-11T05:50:02.175Z,89.58
2023-09-11T05:52:04.435Z,88.37
2023-09-11T05:54:06.609Z,86.97
2023-09-11T05:56:08.400Z,86.74
2023-09-11T05:58:09.981Z,86.29
2023-09-11T06:00:13.596Z,87.26
2023-09-11T06:02:15.408Z,88.97
2023-09-11T06:04:17.272Z,87.28
2023-09-11T06:06:18.877Z,86.63
2023-09-11T06:08:20.376Z,85.81
2023-09-11T06:10:22.068Z,85.30
2023-09-11T06:12:24.349Z,84.24
2023-09-11T06:14:26.151Z,85.58
2023-09-11T06:16:27.856Z,87.61
2023-09-11T06:18:29.677Z,87.12
2023-09-11T06:20:31.439Z,86.65
2023-09-11T06:22:33.241Z,86.19
2023-09-11T06:24:34.772Z,87.14
2023-09-11T06:26:36.310Z,85.75
2023-09-11T06:28:38.198Z,83.57
2023-09-11T06:30:40.685Z,84.24
2023-09-11T06:32:43.149Z,83.04
2023-09-11T06:34:44.939Z,82.46
2023-09-11T06:36:47.309Z,83.10
2023-09-11T06:38:48.917Z,83.08
2023-09-11T06:40:50.748Z,81.14
2023-09-11T06:42:52.400Z,78.73
2023-09-11T06:44:55.089Z,77.84
2023-09-11T06:46:56.687Z,76.59
2023-09-11T06:48:58.275Z,76.18
2023-09-11T06:51:00.299Z,75.57
2023-09-11T06:53:02.014Z,73.13
2023-09-11T06:55:03.961Z,71.88
2023-09-11T06:57:05.916Z,72.03
2023-09-11T06:59:07.797Z,74.66
2023-09-11T07:01:09.596Z,74.98
2023-09-11T07:03:11.354Z,74.78
2023-09-11T07:05:12.992Z,72.57
2023-09-11T07:07:14.965Z,70.51
2023-09-11T07:09:16.697Z,69.15
2023-09-11T07:11:18.390Z,68.52
2023-09-11T07:13:20.050Z,67.91
2023-09-11T07:15:21.613Z,67.53
2023-09-11T07:17:23.214Z,68.34
2023-09-11T07:19:24.836Z,66.81
2023-09-11T07:21:26.434Z,66.25
2023-09-11T07:23:30.314Z,66.01
2023-09-11T07:25:31.923Z,65.48
2023-09-11T07:27:36.552Z,64.59
2023-09-11T07:29:38.270Z,64.27
2023-09-11T07:31:39.846Z,65.38
2023-09-11T07:33:41.458Z,66.26
2023-09-11T07:35:43.256Z,64.61
2023-09-11T07:37:44.822Z,64.70
2023-09-11T07:39:46.404Z,63.65
2023-09-11T07:41:49.128Z,63.44
2023-09-11T07:43:51.137Z,64.47
2023-09-11T07:45:52.950Z,64.35
2023-09-11T07:47:55.682Z,63.10
2023-09-11T07:49:57.273Z,61.71
2023-09-11T07:51:59.075Z,61.82
2023-09-11T07:54:01.245Z,60.73
2023-09-11T07:56:09.887Z,61.05
2023-09-11T07:58:11.454Z,60.18
2023-09-11T08:00:13.921Z,61.49
2023-09-11T08:02:15.646Z,60.16
2023-09-11T08:04:17.391Z,58.95
2023-09-11T08:06:20.079Z,57.54
2023-09-11T08:08:21.681Z,58.59
2023-09-11T08:10:23.835Z,57.78
2023-09-11T08:12:26.161Z,56.76
2023-09-11T08:14:27.985Z,56.34
2023-09-11T08:16:30.341Z,55.44
2023-09-11T08:18:32.028Z,55.64
2023-09-11T08:20:34.159Z,54.82
2023-09-11T08:22:35.837Z,54.40
2023-09-11T08:24:38.016Z,53.79
2023-09-11T08:26:39.775Z,53.44
2023-09-11T08:28:41.490Z,52.08
2023-09-11T08:30:43.236Z,52.53
2023-09-11T08:32:44.860Z,52.30
2023-09-11T08:34:46.485Z,51.18
2023-09-11T08:36:48.573Z,51.16
2023-09-11T08:38:50.153Z,50.25
2023-09-11T08:40:51.869Z,49.80
2023-09-11T08:42:53.586Z,48.82
2023-09-11T08:44:55.111Z,49.45
2023-09-11T08:47:00.440Z,49.33
2023-09-11T08:49:03.763Z,47.35
2023-09-11T08:51:11.795Z,48.42
2023-09-11T08:53:17.072Z,47.62
2023-09-11T08:55:22.549Z,47.57
2023-09-11T08:57:27.542Z,47.87
2023-09-11T08:59:30.763Z,47.17
2023-09-11T09:01:33.486Z,46.89
2023-09-11T09:03:36.497Z,45.96
2023-09-11T09:05:38.658Z,45.18
2023-09-11T09:07:40.764Z,44.48
2023-09-11T09:09:43.262Z,46.12
2023-09-11T09:11:49.610Z,43.02
2023-09-11T09:13:51.275Z,44.78
2023-09-11T09:15:53.026Z,44.21
2023-09-11T09:17:56.032Z,44.13
2023-09-11T09:19:57.808Z,41.57
2023-09-11T09:22:02.350Z,42.06
2023-09-11T09:24:12.729Z,41.69
2023-09-11T09:26:15.825Z,42.05
2023-09-11T09:28:32.259Z,40.79
2023-09-11T09:30:37.831Z,41.09
2023-09-11T09:32:39.455Z,41.44
2023-09-11T09:34:50.134Z,41.90
2023-09-11T09:36:52.738Z,39.39
2023-09-11T09:38:54.298Z,40.52
2023-09-11T09:40:56.811Z,41.06
2023-09-11T09:43:02.327Z,42.02
2023-09-11T09:45:04.477Z,41.18
2023-09-11T09:47:07.732Z,41.74
2023-09-11T09:49:10.892Z,42.42
2023-09-11T09:51:12.578Z,41.77
2023-09-11T09:53:22.292Z,40.49
2023-09-11T09:55:24.088Z,39.48
2023-09-11T09:57:27.918Z,38.84
2023-09-11T09:59:29.633Z,39.77
2023-09-11T10:01:31.250Z,40.06
2023-09-11T10:03:48.644Z,38.79
2023-09-11T10:05:51.193Z,40.08
2023-09-11T10:07:53.870Z,39.11
2023-09-11T10:10:30.725Z,40.05
2023-09-11T10:12:32.330Z,40.17
2023-09-11T10:14:34.364Z,41.36
2023-09-11T10:16:36.937Z,42.37
2023-09-11T10:18:42.199Z,41.35
2023-09-11T10:20:43.940Z,41.43
2023-09-11T10:22:45.971Z,40.54
2023-09-11T10:24:47.727Z,41.57
2023-09-11T10:26:53.407Z,39.73
2023-09-11T10:28:59.293Z,38.75
2023-09-11T10:31:11.854Z,41.11
2023-09-11T10:33:21.690Z,39.58
2023-09-11T10:35:23.464Z,39.69
2023-09-11T10:37:25.168Z,39.59
2023-09-11T10:39:27.026Z,41.00
2023-09-11T10:41:29.498Z,40.57
2023-09-11T10:43:34.877Z,39.07
2023-09-11T10:45:37.768Z,39.01
2023-09-11T10:47:50.638Z,39.63
2023-09-11T10:49:52.252Z,38.63
2023-09-11T10:51:53.950Z,39.71
2023-09-11T10:53:56.181Z,38.55
2023-09-11T10:56:01.208Z,37.88
2023-09-11T10:58:07.804Z,37.84
2023-09-11T11:00:12.935Z,37.92
2023-09-11T11:02:14.891Z,38.39
2023-09-11T11:04:17.660Z,38.19
2023-09-11T11:06:23.325Z,38.74
2023-09-11T11:08:25.424Z,38.84
2023-09-11T11:10:27.649Z,39.33
2023-09-11T11:12:33.843Z,40.07
2023-09-11T11:14:36.767Z,41.36
2023-09-11T11:16:39.265Z,39.31
2023-09-11T11:18:41.135Z,38.57
2023-09-11T11:21:05.133Z,39.82
2023-09-11T11:23:11.709Z,37.75
2023-09-11T11:25:13.664Z,37.42
2023-09-11T11:27:15.376Z,37.95
2023-09-11T11:29:18.250Z,37.36
2023-09-11T11:31:22.023Z,37.98
2023-09-11T11:33:26.166Z,37.45
2023-09-11T11:35:27.945Z,38.44
2023-09-11T11:37:31.445Z,37.52
2023-09-11T11:39:39.770Z,37.24
2023-09-11T11:41:42.050Z,40.09
2023-09-11T11:43:43.947Z,38.92
2023-09-11T11:45:48.287Z,38.17
2023-09-11T11:47:52.041Z,40.94
2023-09-11T11:49:54.694Z,39.85
2023-09-11T11:52:01.700Z,39.75
2023-09-11T11:54:05.243Z,39.49
2023-09-11T11:56:06.870Z,39.23
2023-09-11T11:58:10.161Z,39.87
2023-09-11T12:00:12.637Z,38.04
2023-09-11T12:02:24.411Z,37.94
2023-09-11T12:04:45.243Z,38.22
2023-09-11T12:06:48.078Z,38.61
2023-09-11T12:08:50.804Z,40.08
2023-09-11T12:10:53.252Z,41.37
2023-09-11T12:12:54.780Z,40.42
2023-09-11T12:14:57.611Z,38.54
2023-09-11T12:16:59.268Z,38.94
2023-09-11T12:19:01.601Z,38.38
2023-09-11T12:21:05.203Z,37.35
2023-09-11T12:23:07.053Z,36.48
2023-09-11T12:25:08.921Z,36.51
2023-09-11T12:27:10.660Z,35.56
2023-09-11T12:29:12.375Z,35.57
2023-09-11T12:31:14.331Z,35.29
2023-09-11T12:33:27.510Z,35.03
2023-09-11T12:35:32.742Z,34.02
2023-09-11T12:37:35.459Z,34.98
2023-09-11T12:39:37.174Z,34.84
2023-09-11T12:41:38.742Z,34.56
2023-09-11T12:43:40.251Z,34.97
2023-09-11T12:45:42.514Z,33.27
2023-09-11T12:47:44.263Z,32.76
2023-09-11T12:49:45.932Z,32.33
2023-09-11T12:51:47.575Z,33.89
2023-09-11T12:53:50.561Z,32.07
2023-09-11T12:55:52.517Z,32.42
2023-09-11T12:57:57.813Z,33.87
2023-09-11T13:00:02.557Z,34.31
2023-09-11T13:02:05.746Z,33.36
2023-09-11T13:04:08.126Z,34.30
2023-09-11T13:06:09.806Z,33.03
2023-09-11T13:08:12.120Z,33.08
2023-09-11T13:10:15.936Z,32.78
2023-09-11T13:12:17.534Z,32.95
2023-09-11T13:14:19.524Z,32.56
2023-09-11T13:16:21.720Z,32.46
2023-09-11T13:18:23.470Z,31.96
2023-09-11T13:20:25.110Z,30.33
2023-09-11T13:22:26.942Z,33.29
2023-09-11T13:24:28.703Z,32.88
2023-09-11T13:26:30.485Z,31.00
2023-09-11T13:28:32.409Z,32.20
2023-09-11T13:30:35.104Z,32.34
2023-09-11T13:32:38.851Z,32.17
2023-09-11T13:34:40.480Z,32.80
2023-09-11T13:36:42.002Z,30.45
2023-09-11T13:38:43.804Z,30.29
2023-09-11T13:40:49.261Z,31.16
2023-09-11T13:42:51.284Z,30.79
2023-09-11T13:44:54.032Z,29.33
2023-09-11T13:46:55.737Z,30.26
2023-09-11T13:48:57.437Z,31.52
2023-09-11T13:50:59.003Z,32.43
2023-09-11T13:53:02.157Z,31.45
2023-09-11T13:55:05.025Z,32.32
2023-09-11T13:57:06.659Z,33.13
2023-09-11T13:59:08.254Z,32.00
2023-09-11T14:01:09.862Z,33.86
2023-09-11T14:03:11.503Z,31.74
2023-09-11T14:05:13.156Z,31.21
2023-09-11T14:07:15.421Z,32.36
2023-09-11T14:09:16.976Z,32.26
2023-09-11T14:11:18.576Z,32.26
2023-09-11T14:13:21.527Z,32.14
2023-09-11T14:15:23.640Z,31.74
2023-09-11T14:17:25.576Z,30.84
2023-09-11T14:19:27.121Z,31.88
2023-09-11T14:21:28.581Z,31.77
2023-09-11T14:23:30.112Z,31.18
2023-09-11T14:25:31.772Z,32.17
2023-09-11T14:27:33.790Z,33.33
2023-09-11T14:29:35.349Z,32.91
2023-09-11T14:31:37.492Z,32.20
2023-09-11T14:33:39.315Z,32.68
2023-09-11T14:35:41.424Z,31.75
2023-09-11T14:37:43.064Z,31.14
2023-09-11T14:39:44.590Z,30.74
2023-09-11T14:41:46.267Z,29.79
2023-09-11T14:43:47.843Z,30.29
2023-09-11T14:45:49.408Z,30.60
2023-09-11T14:47:51.077Z,31.04
2023-09-11T14:49:52.745Z,30.58
2023-09-11T14:51:54.328Z,31.80
2023-09-11T14:53:55.975Z,30.88
2023-09-11T14:56:01.889Z,31.44
2023-09-11T14:58:03.481Z,31.06
2023-09-11T15:00:05.950Z,30.51
2023-09-11T15:02:08.601Z,29.90
2023-09-11T15:04:13.459Z,29.86
2023-09-11T15:06:25.688Z,29.38
2023-09-11T15:08:27.891Z,29.37
2023-09-11T15:10:29.452Z,29.31
2023-09-11T15:12:31.332Z,29.02
2023-09-11T15:14:34.180Z,29.57
2023-09-11T15:16:35.764Z,29.91
2023-09-11T15:18:37.852Z,28.48
2023-09-11T15:20:39.593Z,28.68
2023-09-11T15:22:41.143Z,28.68
2023-09-11T15:24:43.955Z,29.32
2023-09-11T15:26:45.630Z,29.11
2023-09-11T15:28:47.327Z,28.33
2023-09-11T15:30:56.850Z,27.30
2023-09-11T15:32:59.439Z,27.29
2023-09-11T15:35:01.184Z,26.82
2023-09-11T15:37:02.833Z,26.23
2023-09-11T15:39:05.593Z,26.69
2023-09-11T15:41:07.530Z,26.58
2023-09-11T15:43:09.153Z,26.79
2023-09-11T15:45:11.957Z,26.73
2023-09-11T15:47:14.034Z,28.52
2023-09-11T15:49:16.509Z,29.38
2023-09-11T15:51:18.299Z,29.49
2023-09-11T15:53:20.917Z,29.61
2023-09-11T15:55:22.503Z,29.35
2023-09-11T15:57:24.094Z,30.54
2023-09-11T15:59:25.650Z,31.28
2023-09-11T16:01:28.310Z,31.51
2023-09-11T16:03:30.749Z,32.02
2023-09-11T16:05:33.843Z,31.87
2023-09-11T16:07:35.504Z,32.25
2023-09-11T16:09:37.547Z,33.11
2023-09-11T16:11:39.116Z,33.17
2023-09-11T16:13:41.066Z,33.10
2023-09-11T16:15:42.991Z,34.09
2023-09-11T16:17:44.953Z,34.93
2023-09-11T16:19:46.837Z,36.40
2023-09-11T16:21:49.023Z,37.16
2023-09-11T16:23:50.685Z,37.18
2023-09-11T16:25:52.430Z,37.58
2023-09-11T16:27:54.708Z,37.44
2023-09-11T16:29:56.258Z,37.24
2023-09-11T16:31:57.713Z,37.98
2023-09-11T16:33:59.700Z,38.36
2023-09-11T16:36:01.939Z,39.44
2023-09-11T16:38:03.925Z,40.40
2023-09-11T16:40:07.835Z,40.55
2023-09-11T16:42:09.498Z,41.81
2023-09-11T16:44:11.692Z,43.37
2023-09-11T16:46:13.276Z,43.88
2023-09-11T16:48:14.876Z,46.13
2023-09-11T16:50:18.199Z,46.26
2023-09-11T16:52:19.882Z,47.79
2023-09-11T16:54:21.513Z,48.22
2023-09-11T16:56:23.048Z,50.06
2023-09-11T16:58:25.044Z,50.57
2023-09-11T17:00:26.779Z,50.48
2023-09-11T17:02:28.340Z,51.67
2023-09-11T17:04:30.509Z,52.06
2023-09-11T17:06:32.103Z,51.67
2023-09-11T17:08:33.669Z,51.09
2023-09-11T17:10:35.506Z,51.02
2023-09-11T17:12:40.690Z,51.21
2023-09-11T17:14:42.576Z,50.58
2023-09-11T17:16:44.611Z,51.10
2023-09-11T17:18:46.437Z,51.04
2023-09-11T17:20:51.625Z,50.76
2023-09-11T17:22:53.309Z,51.77
2023-09-11T17:24:55.521Z,52.79
2023-09-11T17:26:57.315Z,53.75
2023-09-11T17:28:58.904Z,54.84
2023-09-11T17:31:00.543Z,55.04
2023-09-11T17:33:02.183Z,56.01
2023-09-11T17:35:04.474Z,55.96
2023-09-11T17:37:06.722Z,56.04
2023-09-11T17:39:10.643Z,56.48
2023-09-11T17:41:12.838Z,57.16
2023-09-11T17:43:14.397Z,57.46
2023-09-11T17:45:16.024Z,58.15
2023-09-11T17:47:17.810Z,58.05
2023-09-11T17:49:19.360Z,57.80
2023-09-11T17:51:21.048Z,58.35
2023-09-11T17:53:22.911Z,58.53
2023-09-11T17:55:24.413Z,59.12
2023-09-11T17:57:26.083Z,59.25
2023-09-11T17:59:27.685Z,59.46
2023-09-11T18:01:29.378Z,60.25
2023-09-11T18:03:31.479Z,60.74
2023-09-11T18:05:33.771Z,60.92
2023-09-11T18:07:39.738Z,61.51
2023-09-11T18:09:41.389Z,62.12
2023-09-11T18:11:43.096Z,61.75
2023-09-11T18:13:45.601Z,61.31
2023-09-11T18:15:47.896Z,61.42
2023-09-11T18:17:49.470Z,61.85
2023-09-11T18:19:51.163Z,63.40
2023-09-11T18:21:52.715Z,63.24
2023-09-11T18:23:55.650Z,63.14
2023-09-11T18:25:57.204Z,63.24
2023-09-11T18:27:58.841Z,63.13
2023-09-11T18:30:00.543Z,62.81
2023-09-11T18:32:02.311Z,63.48
2023-09-11T18:34:06.663Z,64.45
2023-09-11T18:36:08.864Z,64.02
2023-09-11T18:38:10.604Z,64.89
2023-09-11T18:40:12.433Z,65.12
2023-09-11T18:42:14.357Z,65.24
2023-09-11T18:44:15.901Z,65.14
2023-09-11T18:46:18.641Z,65.81
2023-09-11T18:48:20.411Z,66.52
2023-09-11T18:50:22.155Z,66.47
2023-09-11T18:52:23.798Z,66.02
2023-09-11T18:54:26.482Z,66.11
2023-09-11T18:56:30.281Z,66.39
2023-09-11T18:58:32.337Z,66.20
2023-09-11T19:00:33.937Z,65.14
2023-09-11T19:02:35.561Z,65.91
2023-09-11T19:04:37.372Z,67.88
2023-09-11T19:06:40.047Z,67.05
2023-09-11T19:08:43.336Z,67.76
2023-09-11T19:10:45.221Z,68.16
2023-09-11T19:12:48.083Z,67.82
2023-09-11T19:14:49.977Z,67.49
2023-09-11T19:16:52.415Z,68.34
2023-09-11T19:18:54.588Z,69.05
2023-09-11T19:20:56.209Z,68.95
2023-09-11T19:22:57.725Z,68.67
2023-09-11T19:24:59.658Z,68.90
2023-09-11T19:27:01.803Z,70.18
2023-09-11T19:29:03.656Z,69.56
2023-09-11T19:31:05.382Z,69.99
2023-09-11T19:33:07.177Z,70.49
2023-09-11T19:35:09.648Z,71.19
2023-09-11T19:37:12.921Z,70.76
2023-09-11T19:39:14.491Z,71.57
2023-09-11T19:41:16.374Z,71.24
2023-09-11T19:43:17.919Z,70.84
2023-09-11T19:45:19.853Z,71.34
2023-09-11T19:47:24.753Z,70.69
2023-09-11T19:49:26.449Z,70.48
2023-09-11T19:51:28.001Z,71.17
2023-09-11T19:53:30.263Z,72.08
2023-09-11T19:55:32.292Z,71.76
2023-09-11T19:57:35.231Z,72.25
2023-09-11T19:59:36.851Z,71.69
2023-09-11T20:01:38.629Z,72.92
2023-09-11T20:03:40.323Z,73.44
2023-09-11T20:05:41.965Z,73.46
2023-09-11T20:07:47.019Z,73.94
2023-09-11T20:09:48.543Z,73.98
2023-09-11T20:11:50.189Z,75.06
2023-09-11T20:13:51.723Z,74.57
2023-09-11T20:15:53.291Z,75.09
2023-09-11T20:17:54.942Z,76.52
2023-09-11T20:19:59.101Z,76.94
2023-09-11T20:22:00.718Z,77.41
2023-09-11T20:24:02.326Z,76.80
2023-09-11T20:26:04.406Z,76.40
2023-09-11T20:28:06.272Z,76.50
2023-09-11T20:30:08.290Z,75.95
2023-09-11T20:32:09.950Z,75.49
2023-09-11T20:34:11.644Z,75.55
2023-09-11T20:36:15.147Z,76.70
2023-09-11T20:38:21.347Z,76.66
2023-09-11T20:40:23.077Z,77.79
2023-09-11T20:42:24.765Z,78.72
2023-09-11T20:44:26.404Z,77.77
2023-09-11T20:46:28.059Z,79.61
2023-09-11T20:48:29.818Z,79.76
2023-09-11T20:50:31.901Z,79.44
2023-09-11T20:52:33.398Z,78.91
2023-09-11T20:54:34.922Z,78.38
2023-09-11T20:56:37.444Z,79.24
2023-09-11T20:58:39.255Z,78.69
2023-09-11T21:00:41.061Z,78.33
2023-09-11T21:02:42.646Z,78.40
2023-09-11T21:04:45.565Z,78.60
2023-09-11T21:06:47.357Z,78.16
2023-09-11T21:08:50.449Z,77.89
2023-09-11T21:10:52.012Z,77.72
2023-09-11T21:12:56.016Z,77.87
2023-09-11T21:14:58.740Z,78.50
2023-09-11T21:17:00.375Z,78.44
2023-09-11T21:19:06.412Z,78.64
2023-09-11T21:21:08.117Z,79.56
2023-09-11T21:23:09.752Z,79.21
2023-09-11T21:25:14.842Z,80.33
2023-09-11T21:27:16.413Z,79.95
2023-09-11T21:29:17.961Z,79.61
2023-09-11T21:31:19.791Z,80.59
2023-09-11T21:33:22.455Z,80.67
2023-09-11T21:35:24.139Z,80.77
2023-09-11T21:37:26.322Z,80.90
2023-09-11T21:39:27.869Z,80.84
2023-09-11T21:41:29.763Z,80.23
2023-09-11T21:43:31.402Z,81.37
2023-09-11T21:45:33.018Z,81.62
2023-09-11T21:47:35.279Z,80.81
2023-09-11T21:49:36.857Z,80.07
2023-09-11T21:51:38.735Z,80.20
2023-09-11T21:53:41.767Z,80.07
2023-09-11T21:55:43.595Z,80.95
2023-09-11T21:57:45.125Z,82.18
2023-09-11T21:59:48.106Z,81.25
2023-09-11T22:01:49.845Z,80.65
2023-09-11T22:03:51.511Z,80.53
2023-09-11T22:05:53.120Z,80.32
2023-09-11T22:07:54.696Z,80.59
2023-09-11T22:09:56.616Z,81.21
2023-09-11T22:11:58.728Z,80.88
2023-09-11T22:14:00.286Z,81.27
2023-09-11T22:16:01.867Z,81.31
2023-09-11T22:18:03.960Z,80.84
2023-09-11T22:20:06.385Z,81.26
2023-09-11T22:22:07.965Z,81.96
2023-09-11T22:24:09.878Z,81.88
2023-09-11T22:26:11.439Z,83.46
2023-09-11T22:28:13.105Z,83.05
2023-09-11T22:30:14.748Z,82.92
2023-09-11T22:32:16.366Z,82.65
2023-09-11T22:34:18.053Z,83.42
2023-09-11T22:36:20.029Z,83.64
2023-09-11T22:38:21.608Z,83.72
2023-09-11T22:40:23.907Z,83.50
2023-09-11T22:42:26.147Z,82.95
2023-09-11T22:44:32.897Z,83.94
2023-09-11T22:46:35.326Z,83.15
2023-09-11T22:48:36.918Z,83.12
2023-09-11T22:50:38.927Z,83.02
2023-09-11T22:52:40.442Z,83.17
2023-09-11T22:54:42.080Z,83.33
2023-09-11T22:56:43.598Z,83.20
2023-09-11T22:58:45.343Z,83.23
2023-09-11T23:00:47.097Z,82.54
2023-09-11T23:02:48.950Z,82.24
2023-09-11T23:04:50.542Z,82.79
2023-09-11T23:06:52.167Z,85.00
2023-09-11T23:08:53.810Z,84.54
2023-09-11T23:10:55.371Z,83.56
2023-09-11T23:12:56.917Z,84.75
2023-09-11T23:14:58.597Z,84.00
2023-09-11T23:17:00.113Z,83.46
2023-09-11T23:19:01.834Z,83.90
2023-09-11T23:21:03.592Z,84.28
2023-09-11T23:23:05.159Z,85.38
2023-09-11T23:25:08.015Z,87.47
2023-09-11T23:27:09.829Z,88.58
2023-09-11T23:29:11.719Z,89.06
2023-09-11T23:31:13.575Z,87.08
2023-09-11T23:33:15.463Z,85.86
2023-09-11T23:35:17.086Z,85.25
2023-09-11T23:37:18.627Z,84.77
2023-09-11T23:39:20.164Z,84.38
2023-09-11T23:41:23.609Z,84.72
2023-09-11T23:43:35.661Z,85.08
2023-09-11T23:45:37.745Z,84.76
2023-09-11T23:47:39.640Z,85.41
2023-09-11T23:49:41.472Z,85.46
2023-09-11T23:51:43.117Z,85.88
2023-09-11T23:53:45.079Z,87.27
2023-09-11T23:55:47.314Z,89.52
2023-09-11T23:57:48.836Z,88.75
2023-09-11T23:59:50.430Z,87.84
